sensor_id;sensor_type;location;lat;lon;timestamp;P1;durP1;ratioP1;P2;durP2;ratioP2
3155;SDS011;1588;50.892;7.082;2022-08-20T00:01:00;4.10;;;2.80;;
3155;SDS011;1588;50.892;7.082;2022-08-20T00:06:04;3.80;;;2.70;;
3155;SDS011;1588;50.892;7.082;2022-08-20T00:11:13;9.13;;;2.73;;
3155;SDS011;1588;50.892;7.082;2022-08-20T00:16:17;5.00;;;2.50;;
3155;SDS011;1588;50.892;7.082;2022-08-20T00:21:22;6.47;;;3.20;;
3155;SDS011;1588;50.892;7.082;2022-08-20T00:26:26;6.23;;;3.03;;
3155;SDS011;1588;50.892;7.082;2022-08-20T00:31:28;3.97;;;2.53;;
3155;SDS011;1588;50.892;7.082;2022-08-20T00:36:31;8.10;;;3.87;;
3155;SDS011;1588;50.892;7.082;2022-08-20T00:41:35;8.33;;;3.07;;
3155;SDS011;1588;50.892;7.082;2022-08-20T00:46:38;4.07;;;3.63;;
3155;SDS011;1588;50.892;7.082;2022-08-20T00:51:42;4.70;;;3.30;;
3155;SDS011;1588;50.892;7.082;2022-08-20T00:56:50;6.03;;;3.87;;
3155;SDS011;1588;50.892;7.082;2022-08-20T01:01:56;5.73;;;3.40;;
3155;SDS011;1588;50.892;7.082;2022-08-20T01:07:01;7.00;;;4.30;;
3155;SDS011;1588;50.892;7.082;2022-08-20T01:12:06;11.20;;;4.10;;
3155;SDS011;1588;50.892;7.082;2022-08-20T01:17:14;6.17;;;3.67;;
3155;SDS011;1588;50.892;7.082;2022-08-20T01:22:20;8.60;;;5.10;;
3155;SDS011;1588;50.892;7.082;2022-08-20T01:27:47;7.63;;;4.10;;
3155;SDS011;1588;50.892;7.082;2022-08-20T01:32:51;10.70;;;4.87;;
3155;SDS011;1588;50.892;7.082;2022-08-20T01:37:54;5.43;;;3.43;;
3155;SDS011;1588;50.892;7.082;2022-08-20T01:42:57;7.30;;;4.30;;
3155;SDS011;1588;50.892;7.082;2022-08-20T01:48:00;8.80;;;4.10;;
3155;SDS011;1588;50.892;7.082;2022-08-20T01:53:05;5.67;;;3.50;;
3155;SDS011;1588;50.892;7.082;2022-08-20T01:58:16;5.43;;;4.10;;
3155;SDS011;1588;50.892;7.082;2022-08-20T02:03:19;4.80;;;2.77;;
3155;SDS011;1588;50.892;7.082;2022-08-20T02:08:21;4.73;;;3.67;;
3155;SDS011;1588;50.892;7.082;2022-08-20T02:13:25;4.97;;;2.77;;
3155;SDS011;1588;50.892;7.082;2022-08-20T02:18:27;3.80;;;2.70;;
3155;SDS011;1588;50.892;7.082;2022-08-20T02:23:30;3.50;;;2.90;;
3155;SDS011;1588;50.892;7.082;2022-08-20T02:28:34;12.33;;;3.30;;
3155;SDS011;1588;50.892;7.082;2022-08-20T02:33:36;5.63;;;2.70;;
3155;SDS011;1588;50.892;7.082;2022-08-20T02:38:39;6.13;;;2.87;;
3155;SDS011;1588;50.892;7.082;2022-08-20T02:43:43;4.90;;;2.83;;
3155;SDS011;1588;50.892;7.082;2022-08-20T02:48:45;4.73;;;2.70;;
3155;SDS011;1588;50.892;7.082;2022-08-20T02:53:48;4.70;;;2.40;;
3155;SDS011;1588;50.892;7.082;2022-08-20T02:58:51;6.27;;;2.23;;
3155;SDS011;1588;50.892;7.082;2022-08-20T03:03:54;3.57;;;2.30;;
3155;SDS011;1588;50.892;7.082;2022-08-20T03:08:58;3.47;;;2.70;;
3155;SDS011;1588;50.892;7.082;2022-08-20T03:14:03;7.17;;;2.77;;
3155;SDS011;1588;50.892;7.082;2022-08-20T03:19:06;7.10;;;2.70;;
3155;SDS011;1588;50.892;7.082;2022-08-20T03:24:08;5.03;;;2.97;;
3155;SDS011;1588;50.892;7.082;2022-08-20T03:29:12;5.17;;;3.10;;
3155;SDS011;1588;50.892;7.082;2022-08-20T03:34:15;5.53;;;3.30;;
3155;SDS011;1588;50.892;7.082;2022-08-20T03:39:17;6.80;;;3.10;;
3155;SDS011;1588;50.892;7.082;2022-08-20T03:44:21;9.27;;;3.30;;
3155;SDS011;1588;50.892;7.082;2022-08-20T03:49:23;8.70;;;3.60;;
3155;SDS011;1588;50.892;7.082;2022-08-20T03:54:26;4.77;;;3.50;;
3155;SDS011;1588;50.892;7.082;2022-08-20T03:59:30;5.37;;;3.60;;
3155;SDS011;1588;50.892;7.082;2022-08-20T04:04:32;7.83;;;4.07;;
3155;SDS011;1588;50.892;7.082;2022-08-20T04:09:35;7.33;;;3.07;;
3155;SDS011;1588;50.892;7.082;2022-08-20T04:14:44;5.93;;;3.90;;
3155;SDS011;1588;50.892;7.082;2022-08-20T04:19:46;6.90;;;4.23;;
3155;SDS011;1588;50.892;7.082;2022-08-20T04:24:49;10.30;;;3.77;;
3155;SDS011;1588;50.892;7.082;2022-08-20T04:29:52;5.90;;;4.20;;
3155;SDS011;1588;50.892;7.082;2022-08-20T04:34:55;8.30;;;4.67;;
3155;SDS011;1588;50.892;7.082;2022-08-20T04:40:01;11.10;;;6.13;;
3155;SDS011;1588;50.892;7.082;2022-08-20T04:45:23;13.30;;;6.97;;
3155;SDS011;1588;50.892;7.082;2022-08-20T04:50:26;18.10;;;7.50;;
3155;SDS011;1588;50.892;7.082;2022-08-20T04:55:28;12.03;;;6.67;;
3155;SDS011;1588;50.892;7.082;2022-08-20T05:00:32;12.67;;;5.33;;
3155;SDS011;1588;50.892;7.082;2022-08-20T05:05:35;6.70;;;4.20;;
3155;SDS011;1588;50.892;7.082;2022-08-20T05:10:38;8.33;;;3.20;;
3155;SDS011;1588;50.892;7.082;2022-08-20T05:15:42;3.83;;;2.73;;
3155;SDS011;1588;50.892;7.082;2022-08-20T05:20:48;5.07;;;3.10;;
3155;SDS011;1588;50.892;7.082;2022-08-20T05:25:50;2.93;;;2.40;;
3155;SDS011;1588;50.892;7.082;2022-08-20T05:30:54;6.07;;;2.60;;
3155;SDS011;1588;50.892;7.082;2022-08-20T05:35:57;6.40;;;3.37;;
3155;SDS011;1588;50.892;7.082;2022-08-20T05:40:59;8.10;;;3.97;;
3155;SDS011;1588;50.892;7.082;2022-08-20T05:46:07;5.60;;;3.00;;
3155;SDS011;1588;50.892;7.082;2022-08-20T05:51:09;6.20;;;3.43;;
3155;SDS011;1588;50.892;7.082;2022-08-20T05:56:12;13.77;;;3.03;;
3155;SDS011;1588;50.892;7.082;2022-08-20T06:01:15;10.90;;;5.47;;
3155;SDS011;1588;50.892;7.082;2022-08-20T06:06:18;18.40;;;7.83;;
3155;SDS011;1588;50.892;7.082;2022-08-20T06:11:20;20.87;;;10.77;;
3155;SDS011;1588;50.892;7.082;2022-08-20T06:16:27;28.83;;;13.03;;
3155;SDS011;1588;50.892;7.082;2022-08-20T06:21:29;30.47;;;14.40;;
3155;SDS011;1588;50.892;7.082;2022-08-20T06:26:35;30.80;;;14.57;;
3155;SDS011;1588;50.892;7.082;2022-08-20T06:31:41;28.40;;;14.40;;
3155;SDS011;1588;50.892;7.082;2022-08-20T06:36:44;26.67;;;14.13;;
3155;SDS011;1588;50.892;7.082;2022-08-20T06:41:47;31.83;;;15.37;;
3155;SDS011;1588;50.892;7.082;2022-08-20T06:46:52;30.43;;;15.00;;
3155;SDS011;1588;50.892;7.082;2022-08-20T06:51:55;32.00;;;14.60;;
3155;SDS011;1588;50.892;7.082;2022-08-20T06:56:57;33.87;;;15.87;;
3155;SDS011;1588;50.892;7.082;2022-08-20T07:02:01;34.73;;;13.50;;
3155;SDS011;1588;50.892;7.082;2022-08-20T07:07:05;24.70;;;12.30;;
3155;SDS011;1588;50.892;7.082;2022-08-20T07:12:15;28.30;;;12.53;;
3155;SDS011;1588;50.892;7.082;2022-08-20T07:17:27;30.33;;;15.13;;
3155;SDS011;1588;50.892;7.082;2022-08-20T07:22:29;23.83;;;12.77;;
3155;SDS011;1588;50.892;7.082;2022-08-20T07:27:34;28.47;;;13.30;;
3155;SDS011;1588;50.892;7.082;2022-08-20T07:32:39;22.60;;;11.93;;
3155;SDS011;1588;50.892;7.082;2022-08-20T07:37:43;33.40;;;14.07;;
3155;SDS011;1588;50.892;7.082;2022-08-20T07:42:59;25.90;;;13.87;;
3155;SDS011;1588;50.892;7.082;2022-08-20T07:48:06;24.33;;;13.43;;
3155;SDS011;1588;50.892;7.082;2022-08-20T07:53:11;27.20;;;12.80;;
3155;SDS011;1588;50.892;7.082;2022-08-20T07:58:14;31.40;;;14.70;;
3155;SDS011;1588;50.892;7.082;2022-08-20T08:03:20;23.33;;;12.30;;
3155;SDS011;1588;50.892;7.082;2022-08-20T08:08:23;24.50;;;11.23;;
3155;SDS011;1588;50.892;7.082;2022-08-20T08:13:29;23.67;;;11.30;;
3155;SDS011;1588;50.892;7.082;2022-08-20T08:18:38;22.43;;;10.67;;
3155;SDS011;1588;50.892;7.082;2022-08-20T08:23:43;23.83;;;10.63;;
3155;SDS011;1588;50.892;7.082;2022-08-20T08:28:46;15.50;;;9.73;;
3155;SDS011;1588;50.892;7.082;2022-08-20T08:33:50;19.80;;;10.80;;
3155;SDS011;1588;50.892;7.082;2022-08-20T08:38:52;14.70;;;8.77;;
3155;SDS011;1588;50.892;7.082;2022-08-20T08:43:58;16.00;;;9.30;;
3155;SDS011;1588;50.892;7.082;2022-08-20T08:49:10;20.27;;;8.93;;
3155;SDS011;1588;50.892;7.082;2022-08-20T08:54:16;27.07;;;10.40;;
3155;SDS011;1588;50.892;7.082;2022-08-20T08:59:21;17.10;;;10.90;;
3155;SDS011;1588;50.892;7.082;2022-08-20T09:04:27;16.27;;;11.60;;
3155;SDS011;1588;50.892;7.082;2022-08-20T09:09:33;20.43;;;11.50;;
3155;SDS011;1588;50.892;7.082;2022-08-20T09:14:43;22.93;;;14.20;;
3155;SDS011;1588;50.892;7.082;2022-08-20T09:19:48;27.10;;;13.43;;
3155;SDS011;1588;50.892;7.082;2022-08-20T09:24:52;23.37;;;13.50;;
3155;SDS011;1588;50.892;7.082;2022-08-20T09:29:55;21.80;;;12.27;;
3155;SDS011;1588;50.892;7.082;2022-08-20T09:34:59;18.07;;;11.80;;
3155;SDS011;1588;50.892;7.082;2022-08-20T09:40:02;17.90;;;10.93;;
3155;SDS011;1588;50.892;7.082;2022-08-20T09:45:07;15.77;;;9.07;;
3155;SDS011;1588;50.892;7.082;2022-08-20T09:50:12;20.47;;;9.87;;
3155;SDS011;1588;50.892;7.082;2022-08-20T09:55:18;21.40;;;9.90;;
3155;SDS011;1588;50.892;7.082;2022-08-20T10:00:24;20.30;;;9.63;;
3155;SDS011;1588;50.892;7.082;2022-08-20T10:05:28;15.57;;;9.50;;
3155;SDS011;1588;50.892;7.082;2022-08-20T10:10:31;20.27;;;10.20;;
3155;SDS011;1588;50.892;7.082;2022-08-20T10:15:34;19.87;;;11.40;;
3155;SDS011;1588;50.892;7.082;2022-08-20T10:20:38;16.47;;;10.07;;
3155;SDS011;1588;50.892;7.082;2022-08-20T10:25:43;19.23;;;9.67;;
3155;SDS011;1588;50.892;7.082;2022-08-20T10:30:46;18.50;;;9.20;;
3155;SDS011;1588;50.892;7.082;2022-08-20T10:35:50;20.40;;;10.10;;
3155;SDS011;1588;50.892;7.082;2022-08-20T10:40:52;17.40;;;8.73;;
3155;SDS011;1588;50.892;7.082;2022-08-20T10:45:55;19.73;;;9.70;;
3155;SDS011;1588;50.892;7.082;2022-08-20T10:50:59;20.30;;;9.57;;
3155;SDS011;1588;50.892;7.082;2022-08-20T10:56:01;15.83;;;8.40;;
3155;SDS011;1588;50.892;7.082;2022-08-20T11:01:04;14.83;;;8.30;;
3155;SDS011;1588;50.892;7.082;2022-08-20T11:06:07;15.30;;;9.60;;
3155;SDS011;1588;50.892;7.082;2022-08-20T11:11:10;13.27;;;7.93;;
3155;SDS011;1588;50.892;7.082;2022-08-20T11:16:13;14.83;;;7.43;;
3155;SDS011;1588;50.892;7.082;2022-08-20T11:21:19;13.80;;;7.70;;
3155;SDS011;1588;50.892;7.082;2022-08-20T11:26:22;9.33;;;7.10;;
3155;SDS011;1588;50.892;7.082;2022-08-20T11:31:26;13.57;;;8.10;;
3155;SDS011;1588;50.892;7.082;2022-08-20T11:36:30;18.07;;;7.90;;
3155;SDS011;1588;50.892;7.082;2022-08-20T11:41:33;14.07;;;7.47;;
3155;SDS011;1588;50.892;7.082;2022-08-20T11:46:35;15.07;;;7.40;;
3155;SDS011;1588;50.892;7.082;2022-08-20T11:51:39;12.70;;;7.10;;
3155;SDS011;1588;50.892;7.082;2022-08-20T11:56:42;13.17;;;7.53;;
3155;SDS011;1588;50.892;7.082;2022-08-20T12:01:44;15.60;;;7.27;;
3155;SDS011;1588;50.892;7.082;2022-08-20T12:06:48;16.00;;;6.30;;
3155;SDS011;1588;50.892;7.082;2022-08-20T12:12:01;8.83;;;6.20;;
3155;SDS011;1588;50.892;7.082;2022-08-20T12:17:06;10.20;;;5.70;;
3155;SDS011;1588;50.892;7.082;2022-08-20T12:22:11;16.43;;;6.30;;
3155;SDS011;1588;50.892;7.082;2022-08-20T12:27:14;14.20;;;6.97;;
3155;SDS011;1588;50.892;7.082;2022-08-20T12:32:18;24.50;;;6.90;;
3155;SDS011;1588;50.892;7.082;2022-08-20T12:37:28;14.53;;;7.60;;
3155;SDS011;1588;50.892;7.082;2022-08-20T12:42:31;16.63;;;7.90;;
3155;SDS011;1588;50.892;7.082;2022-08-20T12:47:34;12.17;;;6.80;;
3155;SDS011;1588;50.892;7.082;2022-08-20T12:52:39;12.10;;;6.70;;
3155;SDS011;1588;50.892;7.082;2022-08-20T12:57:43;15.40;;;7.20;;
3155;SDS011;1588;50.892;7.082;2022-08-20T13:02:47;12.97;;;7.83;;
3155;SDS011;1588;50.892;7.082;2022-08-20T13:07:52;10.13;;;7.07;;
3155;SDS011;1588;50.892;7.082;2022-08-20T13:12:55;11.30;;;7.67;;
3155;SDS011;1588;50.892;7.082;2022-08-20T13:17:58;24.10;;;8.03;;
3155;SDS011;1588;50.892;7.082;2022-08-20T13:23:04;12.93;;;7.90;;
3155;SDS011;1588;50.892;7.082;2022-08-20T13:28:07;13.37;;;7.00;;
3155;SDS011;1588;50.892;7.082;2022-08-20T13:33:09;14.70;;;7.97;;
3155;SDS011;1588;50.892;7.082;2022-08-20T13:38:13;13.73;;;7.23;;
3155;SDS011;1588;50.892;7.082;2022-08-20T13:43:21;16.37;;;6.97;;
3155;SDS011;1588;50.892;7.082;2022-08-20T13:48:23;15.00;;;7.13;;
3155;SDS011;1588;50.892;7.082;2022-08-20T13:53:27;12.90;;;5.87;;
3155;SDS011;1588;50.892;7.082;2022-08-20T13:58:30;12.90;;;6.40;;
3155;SDS011;1588;50.892;7.082;2022-08-20T14:03:32;13.80;;;6.63;;
3155;SDS011;1588;50.892;7.082;2022-08-20T14:08:36;14.60;;;6.37;;
3155;SDS011;1588;50.892;7.082;2022-08-20T14:13:38;13.20;;;6.67;;
3155;SDS011;1588;50.892;7.082;2022-08-20T14:18:41;14.30;;;6.73;;
3155;SDS011;1588;50.892;7.082;2022-08-20T14:23:49;13.20;;;5.93;;
3155;SDS011;1588;50.892;7.082;2022-08-20T14:28:51;17.87;;;5.70;;
3155;SDS011;1588;50.892;7.082;2022-08-20T14:33:53;15.37;;;4.70;;
3155;SDS011;1588;50.892;7.082;2022-08-20T14:38:57;12.50;;;4.40;;
3155;SDS011;1588;50.892;7.082;2022-08-20T14:43:59;9.20;;;3.70;;
3155;SDS011;1588;50.892;7.082;2022-08-20T14:49:02;10.40;;;3.53;;
3155;SDS011;1588;50.892;7.082;2022-08-20T14:54:06;4.83;;;2.53;;
3155;SDS011;1588;50.892;7.082;2022-08-20T14:59:08;13.27;;;3.07;;
3155;SDS011;1588;50.892;7.082;2022-08-20T15:04:11;11.00;;;3.60;;
3155;SDS011;1588;50.892;7.082;2022-08-20T15:09:17;8.23;;;3.20;;
3155;SDS011;1588;50.892;7.082;2022-08-20T15:14:23;9.83;;;3.43;;
3155;SDS011;1588;50.892;7.082;2022-08-20T15:19:26;11.33;;;3.10;;
3155;SDS011;1588;50.892;7.082;2022-08-20T15:24:30;21.90;;;3.83;;
3155;SDS011;1588;50.892;7.082;2022-08-20T15:29:33;9.97;;;3.50;;
3155;SDS011;1588;50.892;7.082;2022-08-20T15:34:35;13.17;;;2.77;;
3155;SDS011;1588;50.892;7.082;2022-08-20T15:39:40;16.10;;;3.13;;
3155;SDS011;1588;50.892;7.082;2022-08-20T15:44:44;6.07;;;2.80;;
3155;SDS011;1588;50.892;7.082;2022-08-20T15:49:47;4.80;;;2.73;;
3155;SDS011;1588;50.892;7.082;2022-08-20T15:54:52;5.13;;;2.63;;
3155;SDS011;1588;50.892;7.082;2022-08-20T15:59:58;7.43;;;2.30;;
3155;SDS011;1588;50.892;7.082;2022-08-20T16:05:18;2.90;;;1.90;;
3155;SDS011;1588;50.892;7.082;2022-08-20T16:10:33;6.00;;;2.27;;
3155;SDS011;1588;50.892;7.082;2022-08-20T16:15:42;6.53;;;1.90;;
3155;SDS011;1588;50.892;7.082;2022-08-20T16:20:45;3.97;;;2.43;;
3155;SDS011;1588;50.892;7.082;2022-08-20T16:25:54;3.30;;;2.10;;
3155;SDS011;1588;50.892;7.082;2022-08-20T16:31:09;5.10;;;2.10;;
3155;SDS011;1588;50.892;7.082;2022-08-20T16:36:17;5.60;;;1.90;;
3155;SDS011;1588;50.892;7.082;2022-08-20T16:41:29;6.30;;;2.20;;
3155;SDS011;1588;50.892;7.082;2022-08-20T16:46:35;8.33;;;2.23;;
3155;SDS011;1588;50.892;7.082;2022-08-20T16:51:44;5.40;;;2.40;;
3155;SDS011;1588;50.892;7.082;2022-08-20T16:56:55;6.07;;;2.57;;
3155;SDS011;1588;50.892;7.082;2022-08-20T17:02:01;8.17;;;3.33;;
3155;SDS011;1588;50.892;7.082;2022-08-20T17:07:05;9.23;;;2.93;;
3155;SDS011;1588;50.892;7.082;2022-08-20T17:12:14;11.30;;;3.07;;
3155;SDS011;1588;50.892;7.082;2022-08-20T17:17:20;6.83;;;3.03;;
3155;SDS011;1588;50.892;7.082;2022-08-20T17:22:25;6.27;;;3.13;;
3155;SDS011;1588;50.892;7.082;2022-08-20T17:27:36;3.57;;;2.43;;
3155;SDS011;1588;50.892;7.082;2022-08-20T17:32:45;15.63;;;2.70;;
3155;SDS011;1588;50.892;7.082;2022-08-20T17:37:55;12.60;;;2.90;;
3155;SDS011;1588;50.892;7.082;2022-08-20T17:43:04;6.50;;;2.80;;
3155;SDS011;1588;50.892;7.082;2022-08-20T17:48:11;11.37;;;3.20;;
3155;SDS011;1588;50.892;7.082;2022-08-20T17:53:17;9.50;;;4.33;;
3155;SDS011;1588;50.892;7.082;2022-08-20T17:58:25;9.33;;;3.80;;
3155;SDS011;1588;50.892;7.082;2022-08-20T18:03:36;7.93;;;4.07;;
3155;SDS011;1588;50.892;7.082;2022-08-20T18:08:40;8.03;;;3.90;;
3155;SDS011;1588;50.892;7.082;2022-08-20T18:13:57;8.33;;;4.50;;
3155;SDS011;1588;50.892;7.082;2022-08-20T18:19:20;8.57;;;4.27;;
3155;SDS011;1588;50.892;7.082;2022-08-20T18:24:36;8.50;;;4.60;;
3155;SDS011;1588;50.892;7.082;2022-08-20T18:29:46;9.10;;;4.37;;
3155;SDS011;1588;50.892;7.082;2022-08-20T18:35:05;10.10;;;4.20;;
3155;SDS011;1588;50.892;7.082;2022-08-20T18:40:17;9.67;;;4.20;;
3155;SDS011;1588;50.892;7.082;2022-08-20T18:45:28;10.80;;;4.70;;
3155;SDS011;1588;50.892;7.082;2022-08-20T18:50:45;14.70;;;4.97;;
3155;SDS011;1588;50.892;7.082;2022-08-20T18:55:58;15.07;;;4.20;;
3155;SDS011;1588;50.892;7.082;2022-08-20T19:01:06;8.47;;;4.10;;
3155;SDS011;1588;50.892;7.082;2022-08-20T19:06:24;6.67;;;4.53;;
3155;SDS011;1588;50.892;7.082;2022-08-20T19:11:49;11.50;;;5.03;;
3155;SDS011;1588;50.892;7.082;2022-08-20T19:17:03;8.27;;;4.00;;
3155;SDS011;1588;50.892;7.082;2022-08-20T19:22:10;14.90;;;4.73;;
3155;SDS011;1588;50.892;7.082;2022-08-20T19:27:16;11.00;;;5.73;;
3155;SDS011;1588;50.892;7.082;2022-08-20T19:32:21;9.63;;;4.73;;
3155;SDS011;1588;50.892;7.082;2022-08-20T19:37:27;8.03;;;4.93;;
3155;SDS011;1588;50.892;7.082;2022-08-20T19:42:32;16.37;;;5.10;;
3155;SDS011;1588;50.892;7.082;2022-08-20T19:47:44;9.87;;;5.23;;
3155;SDS011;1588;50.892;7.082;2022-08-20T19:52:55;10.33;;;4.40;;
3155;SDS011;1588;50.892;7.082;2022-08-20T19:58:10;11.70;;;5.07;;
3155;SDS011;1588;50.892;7.082;2022-08-20T20:03:19;16.33;;;5.77;;
3155;SDS011;1588;50.892;7.082;2022-08-20T20:08:25;14.10;;;5.23;;
3155;SDS011;1588;50.892;7.082;2022-08-20T20:13:29;11.50;;;4.87;;
3155;SDS011;1588;50.892;7.082;2022-08-20T20:18:35;8.60;;;5.03;;
3155;SDS011;1588;50.892;7.082;2022-08-20T20:23:48;10.27;;;5.30;;
3155;SDS011;1588;50.892;7.082;2022-08-20T20:28:53;10.87;;;5.53;;
3155;SDS011;1588;50.892;7.082;2022-08-20T20:34:05;10.23;;;6.03;;
3155;SDS011;1588;50.892;7.082;2022-08-20T20:39:23;13.00;;;6.30;;
3155;SDS011;1588;50.892;7.082;2022-08-20T20:44:31;11.33;;;5.80;;
3155;SDS011;1588;50.892;7.082;2022-08-20T20:49:46;9.93;;;6.60;;
3155;SDS011;1588;50.892;7.082;2022-08-20T20:55:10;14.17;;;6.60;;
3155;SDS011;1588;50.892;7.082;2022-08-20T21:00:14;11.73;;;7.23;;
3155;SDS011;1588;50.892;7.082;2022-08-20T21:05:29;11.80;;;5.33;;
3155;SDS011;1588;50.892;7.082;2022-08-20T21:10:34;11.43;;;6.53;;
3155;SDS011;1588;50.892;7.082;2022-08-20T21:15:38;11.47;;;6.70;;
3155;SDS011;1588;50.892;7.082;2022-08-20T21:20:43;11.73;;;6.07;;
3155;SDS011;1588;50.892;7.082;2022-08-20T21:25:47;10.43;;;5.53;;
3155;SDS011;1588;50.892;7.082;2022-08-20T21:30:50;14.43;;;6.70;;
3155;SDS011;1588;50.892;7.082;2022-08-20T21:35:54;14.73;;;7.20;;
3155;SDS011;1588;50.892;7.082;2022-08-20T21:40:58;10.87;;;7.07;;
3155;SDS011;1588;50.892;7.082;2022-08-20T21:46:19;14.60;;;6.77;;
3155;SDS011;1588;50.892;7.082;2022-08-20T21:51:23;12.07;;;6.23;;
3155;SDS011;1588;50.892;7.082;2022-08-20T21:56:25;11.90;;;7.53;;
3155;SDS011;1588;50.892;7.082;2022-08-20T22:01:27;12.43;;;6.60;;
3155;SDS011;1588;50.892;7.082;2022-08-20T22:06:37;16.20;;;7.10;;
3155;SDS011;1588;50.892;7.082;2022-08-20T22:11:40;14.30;;;6.97;;
3155;SDS011;1588;50.892;7.082;2022-08-20T22:16:42;12.20;;;6.60;;
3155;SDS011;1588;50.892;7.082;2022-08-20T22:21:47;20.17;;;6.33;;
3155;SDS011;1588;50.892;7.082;2022-08-20T22:26:49;12.67;;;6.30;;
3155;SDS011;1588;50.892;7.082;2022-08-20T22:31:52;9.33;;;6.20;;
3155;SDS011;1588;50.892;7.082;2022-08-20T22:36:56;12.70;;;7.20;;
3155;SDS011;1588;50.892;7.082;2022-08-20T22:42:00;12.57;;;6.30;;
3155;SDS011;1588;50.892;7.082;2022-08-20T22:47:04;19.37;;;6.40;;
3155;SDS011;1588;50.892;7.082;2022-08-20T22:52:10;22.50;;;7.33;;
3155;SDS011;1588;50.892;7.082;2022-08-20T22:57:13;15.50;;;7.03;;
3155;SDS011;1588;50.892;7.082;2022-08-20T23:02:16;17.43;;;7.43;;
3155;SDS011;1588;50.892;7.082;2022-08-20T23:07:21;13.80;;;7.23;;
3155;SDS011;1588;50.892;7.082;2022-08-20T23:12:23;10.70;;;6.53;;
3155;SDS011;1588;50.892;7.082;2022-08-20T23:17:25;15.80;;;7.60;;
3155;SDS011;1588;50.892;7.082;2022-08-20T23:22:30;13.07;;;7.43;;
3155;SDS011;1588;50.892;7.082;2022-08-20T23:27:33;10.20;;;7.37;;
3155;SDS011;1588;50.892;7.082;2022-08-20T23:32:38;11.93;;;7.40;;
3155;SDS011;1588;50.892;7.082;2022-08-20T23:37:43;17.80;;;7.63;;
3155;SDS011;1588;50.892;7.082;2022-08-20T23:42:47;17.30;;;7.47;;
3155;SDS011;1588;50.892;7.082;2022-08-20T23:47:49;19.67;;;7.90;;
3155;SDS011;1588;50.892;7.082;2022-08-20T23:52:53;18.20;;;8.47;;
3155;SDS011;1588;50.892;7.082;2022-08-20T23:57:57;18.03;;;8.10;;
